Time;durP1;ratioP1;P1;durP2;ratioP2;P2;SDS_P1;SDS_P2;PMS_P1;PMS_P2;Temp;Humidity;BMP_temperature;BMP_pressure;BME280_temperature;BME280_humidity;BME280_pressure;Samples;Min_cycle;Max_cycle;Signal;HPM_P1;HPM_P2
2023/07/13 00:00:04;;;;;;;91.32;87.00;;;;;;;24.96;35.42;101295.88;5076307;28;20028;-71
2023/07/13 00:02:30;;;;;;;91.88;87.50;;;;;;;24.94;35.76;101295.41;5094264;28;20073;-71
2023/07/13 00:04:55;;;;;;;91.55;87.20;;;;;;;24.92;36.00;101291.34;5094379;28;20028;-71
2023/07/13 00:07:20;;;;;;;92.78;88.35;;;;;;;24.91;35.60;101295.25;5094425;28;20050;-72
2023/07/13 00:09:46;;;;;;;90.05;85.88;;;;;;;24.88;35.92;101295.91;5092962;28;20043;-71
2023/07/13 00:12:33;;;;;;;89.88;85.88;;;;;;;24.85;35.80;101297.38;5094219;28;20080;-71
2023/07/13 00:15:01;;;;;;;91.07;86.88;;;;;;;24.82;36.06;101295.25;5093884;28;20082;-71
2023/07/13 00:17:27;;;;;;;93.35;89.15;;;;;;;24.80;36.05;101294.78;5094000;28;20031;-71
2023/07/13 00:19:53;;;;;;;91.07;86.97;;;;;;;24.77;35.80;101292.63;5092842;28;20129;-71
2023/07/13 00:22:19;;;;;;;93.50;89.25;;;;;;;24.75;36.15;101301.28;5093937;28;20032;-72
2023/07/13 00:24:45;;;;;;;87.95;84.05;;;;;;;24.73;35.94;101300.78;5093901;28;20055;-71
2023/07/13 00:27:11;;;;;;;90.70;86.68;;;;;;;24.71;36.25;101303.03;5094408;28;20176;-71
2023/07/13 00:29:37;;;;;;;89.47;85.40;;;;;;;24.70;35.77;101308.91;5094261;28;20043;-71
2023/07/13 00:32:07;;;;;;;90.22;85.70;;;;;;;24.67;35.82;101307.63;5093890;28;20039;-71
2023/07/13 00:34:32;;;;;;;89.20;85.05;;;;;;;24.65;36.31;101307.13;5092435;28;20472;-71
2023/07/13 00:36:58;;;;;;;92.53;88.13;;;;;;;24.63;36.15;101303.06;5093817;28;20036;-72
2023/07/13 00:39:24;;;;;;;89.35;85.35;;;;;;;24.60;36.01;101305.31;5093545;28;20028;-71
2023/07/13 00:41:50;;;;;;;92.75;88.38;;;;;;;24.58;35.92;101304.84;5092382;28;20101;-71
2023/07/13 00:44:16;;;;;;;90.13;85.93;;;;;;;24.55;36.02;101297.19;5093650;28;20055;-71
2023/07/13 00:46:42;;;;;;;90.93;86.82;;;;;;;24.54;36.18;101300.28;5092240;28;20062;-71
2023/07/13 00:49:11;;;;;;;91.80;87.38;;;;;;;24.51;35.98;101289.88;5093444;28;20036;-71
2023/07/13 00:51:42;;;;;;;90.57;86.28;;;;;;;24.49;36.08;101298.47;5092397;28;20028;-71
2023/07/13 00:54:11;;;;;;;90.05;86.10;;;;;;;24.47;36.51;101294.41;5093441;28;20116;-71
2023/07/13 00:56:37;;;;;;;92.05;87.85;;;;;;;24.44;36.09;101301.38;5093317;28;20046;-72
2023/07/13 00:59:06;;;;;;;90.00;86.03;;;;;;;24.43;36.52;101296.19;5093809;28;20039;-71
2023/07/13 01:01:32;;;;;;;89.57;85.45;;;;;;;24.41;36.53;101299.25;5093365;28;20027;-71
2023/07/13 01:03:57;;;;;;;87.90;83.97;;;;;;;24.38;36.64;101297.16;5093336;28;20028;-71
2023/07/13 01:06:23;;;;;;;87.57;83.45;;;;;;;24.35;36.19;101309.66;5092757;28;20417;-72
2023/07/13 01:08:48;;;;;;;89.30;85.32;;;;;;;24.34;36.60;101304.44;5093390;28;20448;-71
2023/07/13 01:11:19;;;;;;;87.60;83.65;;;;;;;24.31;36.56;101300.38;5092061;28;20085;-71
2023/07/13 01:13:44;;;;;;;89.60;85.50;;;;;;;24.30;36.61;101304.28;5093819;28;20103;-71
2023/07/13 01:16:27;;;;;;;90.35;85.93;;;;;;;24.27;36.79;101310.47;5093576;28;20418;-71
2023/07/13 01:18:57;;;;;;;88.10;83.80;;;;;;;24.25;36.55;101318.25;5092579;28;20067;-71
2023/07/13 01:21:23;;;;;;;90.90;86.60;;;;;;;24.22;36.56;101318.06;5092597;28;20036;-72
2023/07/13 01:23:48;;;;;;;91.53;87.32;;;;;;;24.19;36.88;101325.88;5091805;28;20028;-71
2023/07/13 01:26:14;;;;;;;88.18;84.05;;;;;;;24.19;36.74;101319.50;5091888;28;20074;-71
2023/07/13 01:28:39;;;;;;;89.15;85.10;;;;;;;24.16;36.34;101320.97;5091680;28;20032;-71
2023/07/13 01:31:05;;;;;;;88.70;84.60;;;;;;;24.13;36.84;101324.38;5092173;28;20522;-71
2023/07/13 01:33:30;;;;;;;89.57;85.47;;;;;;;24.11;36.79;101321.13;5093183;28;20054;-71
2023/07/13 01:35:57;;;;;;;86.47;82.45;;;;;;;24.09;36.95;101334.44;5091868;28;20038;-72
2023/07/13 01:38:23;;;;;;;89.78;85.78;;;;;;;24.07;36.83;101324.84;5091722;28;20044;-73
2023/07/13 01:40:50;;;;;;;92.53;87.57;;;;;;;24.05;36.54;101324.34;5093450;28;20039;-73
2023/07/13 01:43:16;;;;;;;87.47;83.57;;;;;;;24.03;36.46;101330.19;5093065;28;20032;-71
2023/07/13 01:45:43;;;;;;;89.10;85.00;;;;;;;24.01;37.09;101326.94;5093304;28;20089;-71
2023/07/13 01:48:09;;;;;;;87.53;83.22;;;;;;;23.99;36.95;101326.47;5092854;28;20040;-75
2023/07/13 01:50:34;;;;;;;90.40;85.97;;;;;;;23.98;36.95;101324.81;5092767;28;20115;-72
2023/07/13 01:53:00;;;;;;;86.10;82.03;;;;;;;23.96;36.63;101327.06;5092603;28;20111;-73
2023/07/13 01:55:25;;;;;;;87.25;82.93;;;;;;;23.93;36.91;101328.53;5093011;28;20055;-75
2023/07/13 01:57:51;;;;;;;88.00;83.82;;;;;;;23.92;36.79;101332.44;5091534;28;20399;-72
2023/07/13 02:00:17;;;;;;;87.53;83.57;;;;;;;23.90;36.93;101336.63;5092715;28;20068;-73
2023/07/13 02:02:42;;;;;;;89.28;84.88;;;;;;;23.87;36.73;101334.53;5092997;28;20115;-72
2023/07/13 02:05:08;;;;;;;85.75;81.50;;;;;;;23.85;36.74;101340.34;5092789;28;20033;-72
2023/07/13 02:07:33;;;;;;;85.97;82.10;;;;;;;23.84;37.02;101329.63;5092575;28;20021;-72
2023/07/13 02:09:59;;;;;;;87.00;82.90;;;;;;;23.81;37.26;101333.03;5091282;28;20047;-71
2023/07/13 02:12:24;;;;;;;85.38;81.47;;;;;;;23.79;37.34;101340.78;5092632;28;20038;-72
2023/07/13 02:14:50;;;;;;;84.72;80.95;;;;;;;23.77;37.35;101343.09;5092399;28;20115;-72
2023/07/13 02:17:15;;;;;;;84.35;80.43;;;;;;;23.75;37.15;101344.19;5092654;28;20048;-72
2023/07/13 02:19:41;;;;;;;87.82;83.13;;;;;;;23.73;36.96;101342.88;5096322;28;20204;-72
2023/07/13 02:22:07;;;;;;;88.72;84.45;;;;;;;23.71;37.48;101345.94;5096309;28;20479;-72
2023/07/13 02:24:32;;;;;;;85.85;81.65;;;;;;;23.70;37.02;101337.97;5095923;28;20059;-72
2023/07/13 02:26:58;;;;;;;85.90;82.00;;;;;;;23.67;37.52;101339.44;5094886;28;20032;-71
2023/07/13 02:29:23;;;;;;;84.97;81.15;;;;;;;23.65;37.10;101347.19;5096078;28;20160;-72
2023/07/13 02:31:49;;;;;;;85.07;81.07;;;;;;;23.64;37.09;101342.81;5094562;28;20024;-70
2023/07/13 02:34:14;;;;;;;83.88;80.05;;;;;;;23.62;37.36;101338.75;5094678;28;20139;-71
2023/07/13 02:36:40;;;;;;;81.25;77.47;;;;;;;23.60;37.12;101333.53;5094960;28;20401;-71
2023/07/13 02:39:06;;;;;;;85.82;81.38;;;;;;;23.58;37.11;101338.56;5094660;28;20068;-71
2023/07/13 02:41:32;;;;;;;85.75;81.75;;;;;;;23.56;37.13;101338.06;5095894;28;20527;-71
2023/07/13 02:44:05;;;;;;;87.80;83.75;;;;;;;23.53;37.39;101333.97;5096031;28;20115;-71
2023/07/13 02:46:32;;;;;;;84.63;80.45;;;;;;;23.51;37.72;101325.25;5094536;28;20042;-74
2023/07/13 02:48:58;;;;;;;83.30;79.60;;;;;;;23.48;37.50;101331.34;5095803;28;20117;-72
2023/07/13 02:51:23;;;;;;;84.68;80.57;;;;;;;23.48;37.56;101330.56;5096071;28;20067;-71
2023/07/13 02:53:49;;;;;;;84.05;79.85;;;;;;;23.45;37.64;101332.00;5095642;28;20388;-71
2023/07/13 02:56:14;;;;;;;81.95;77.82;;;;;;;23.43;37.61;101328.75;5096272;28;20028;-72
2023/07/13 02:58:39;;;;;;;85.55;81.55;;;;;;;23.41;37.45;101333.78;5095256;28;20051;-72
2023/07/13 03:01:10;;;;;;;82.65;78.95;;;;;;;23.40;37.56;101325.81;5094776;28;20366;-72
2023/07/13 03:03:35;;;;;;;83.75;79.72;;;;;;;23.37;37.55;101330.00;5095409;28;20080;-71
2023/07/13 03:06:03;;;;;;;85.00;81.10;;;;;;;23.37;37.84;101340.22;5095771;28;20222;-72
2023/07/13 03:08:29;;;;;;;82.60;78.60;;;;;;;23.34;37.39;101338.91;5095347;28;20515;-71
2023/07/13 03:11:07;;;;;;;82.35;78.13;;;;;;;23.31;37.99;101343.13;5095530;28;20032;-72
2023/07/13 03:13:32;;;;;;;82.85;78.72;;;;;;;23.28;38.06;101327.22;5095307;28;20039;-71
2023/07/13 03:15:57;;;;;;;82.15;78.10;;;;;;;23.27;37.62;101344.06;5096094;28;20056;-71
2023/07/13 03:18:23;;;;;;;81.70;77.90;;;;;;;23.24;37.88;101337.22;5095255;28;20123;-71
2023/07/13 03:20:52;;;;;;;81.03;77.20;;;;;;;23.24;37.94;101347.44;5095353;28;20032;-72
2023/07/13 03:23:18;;;;;;;82.72;78.63;;;;;;;23.21;37.71;101343.38;5095083;28;20031;-71
2023/07/13 03:25:44;;;;;;;85.82;81.82;;;;;;;23.19;37.79;101340.13;5094506;28;20244;-71
2023/07/13 03:28:11;;;;;;;81.97;77.45;;;;;;;23.18;37.86;101337.66;5094652;28;20028;-71
2023/07/13 03:30:37;;;;;;;82.38;78.25;;;;;;;23.16;38.13;101339.91;5094688;28;20028;-71
2023/07/13 03:33:03;;;;;;;81.95;77.53;;;;;;;23.13;37.75;101344.09;5095522;28;20031;-71
2023/07/13 03:35:28;;;;;;;86.07;81.10;;;;;;;23.11;37.92;101354.66;5093996;28;20036;-71
2023/07/13 03:37:53;;;;;;;84.25;80.15;;;;;;;23.09;38.04;101354.94;5094526;28;20491;-71
2023/07/13 03:40:20;;;;;;;82.95;78.85;;;;;;;23.07;38.25;101351.69;5094778;28;20115;-71
2023/07/13 03:42:46;;;;;;;80.07;75.93;;;;;;;23.07;38.41;101356.38;5094748;28;20035;-73
2023/07/13 03:45:12;;;;;;;77.53;73.63;;;;;;;23.04;37.87;101346.81;5094513;28;20032;-71
2023/07/13 03:47:37;;;;;;;83.07;79.05;;;;;;;23.02;38.27;101349.06;5094617;28;20476;-71
2023/07/13 03:50:03;;;;;;;78.10;74.05;;;;;;;23.01;38.20;101357.66;5094599;28;20556;-71
2023/07/13 03:52:28;;;;;;;80.72;76.63;;;;;;;22.99;38.53;101362.66;5094626;28;20028;-72
2023/07/13 03:54:54;;;;;;;78.40;74.38;;;;;;;22.97;38.08;101368.47;5095022;28;20077;-71
2023/07/13 03:57:19;;;;;;;81.38;76.88;;;;;;;22.95;38.58;101367.91;5076303;28;20032;-72
2023/07/13 03:59:45;;;;;;;78.45;74.60;;;;;;;22.93;38.53;101370.19;5094063;28;20464;-71
2023/07/13 04:02:10;;;;;;;79.38;75.38;;;;;;;22.92;38.71;101367.75;5093754;28;20120;-72
2023/07/13 04:04:36;;;;;;;79.55;75.18;;;;;;;22.91;38.66;101372.44;5094421;28;20035;-72
2023/07/13 04:07:01;;;;;;;78.50;74.90;;;;;;;22.88;38.69;101373.88;5093432;28;20040;-71
2023/07/13 04:09:27;;;;;;;76.72;72.90;;;;;;;22.87;38.58;101375.00;5076465;28;20464;-71
2023/07/13 04:11:52;;;;;;;79.13;75.32;;;;;;;22.85;38.62;101371.72;5093350;28;20064;-72
2023/07/13 04:14:17;;;;;;;82.25;78.45;;;;;;;22.83;38.50;101376.75;5094008;28;20036;-71
2023/07/13 04:16:43;;;;;;;80.55;76.40;;;;;;;;;;5093093;28;20067;-71
2023/07/13 04:19:10;;;;;;;80.03;75.75;;;;;;;22.79;38.54;101386.75;5093699;28;20036;-71
2023/07/13 04:21:36;;;;;;;74.35;70.75;;;;;;;22.78;38.54;101387.03;5093958;28;20115;-71
2023/07/13 04:24:02;;;;;;;76.47;73.00;;;;;;;22.76;38.58;101387.38;5092545;28;20438;-71
2023/07/13 04:26:28;;;;;;;76.63;72.65;;;;;;;22.74;38.54;101389.63;5093693;28;20478;-73
2023/07/13 04:28:54;;;;;;;78.25;74.55;;;;;;;22.73;38.86;101388.00;5093985;28;20119;-71
2023/07/13 04:31:20;;;;;;;76.90;73.13;;;;;;;22.72;38.85;101391.84;5092792;28;20032;-71
2023/07/13 04:33:45;;;;;;;78.38;74.32;;;;;;;22.71;39.02;101397.69;5093412;28;20032;-71
2023/07/13 04:36:11;;;;;;;78.68;74.03;;;;;;;22.69;38.67;101400.75;5092370;28;20040;-71
2023/07/13 04:38:36;;;;;;;79.75;75.35;;;;;;;22.66;39.00;101396.66;5093583;28;20035;-71
2023/07/13 04:41:05;;;;;;;77.53;73.78;;;;;;;22.66;39.21;101410.44;5093777;28;20032;-71
2023/07/13 04:43:32;;;;;;;79.25;75.35;;;;;;;22.65;38.88;101405.22;5093478;28;20032;-72
2023/07/13 04:46:07;;;;;;;80.35;76.45;;;;;;;22.64;38.92;101412.69;5093809;28;20028;-73
2023/07/13 04:48:33;;;;;;;78.45;74.30;;;;;;;22.63;39.39;101404.75;5093166;28;20391;-72
2023/07/13 04:50:59;;;;;;;79.75;75.70;;;;;;;22.61;39.24;101412.50;5091937;28;20024;-72
2023/07/13 04:53:24;;;;;;;76.20;72.18;;;;;;;22.59;39.25;101418.28;5092365;28;20036;-72
2023/07/13 04:55:50;;;;;;;79.18;75.47;;;;;;;22.59;39.13;101417.47;5091989;28;20445;-72
2023/07/13 04:58:15;;;;;;;79.53;75.13;;;;;;;22.56;39.23;101410.66;5093516;28;20028;-73
2023/07/13 05:00:41;;;;;;;80.95;76.70;;;;;;;22.56;39.27;101412.59;5093072;28;20034;-72
2023/07/13 05:03:06;;;;;;;76.85;72.85;;;;;;;22.54;39.18;101415.66;5093577;28;20024;-73
2023/07/13 05:05:31;;;;;;;73.90;70.50;;;;;;;22.53;39.17;101416.78;5092294;28;20024;-72
2023/07/13 05:07:57;;;;;;;79.32;75.38;;;;;;;22.51;39.08;101418.22;5093202;28;20047;-73
2023/07/13 05:10:23;;;;;;;78.75;74.07;;;;;;;22.51;39.25;101421.78;5093401;28;20425;-72
2023/07/13 05:12:49;;;;;;;80.28;76.25;;;;;;;22.50;39.10;101422.06;5091840;28;20046;-72
2023/07/13 05:15:15;;;;;;;80.25;76.25;;;;;;;22.47;39.23;101420.75;5093125;28;20052;-73
2023/07/13 05:17:40;;;;;;;79.68;74.85;;;;;;;22.46;39.65;101425.44;5093249;28;20040;-72
2023/07/13 05:20:08;;;;;;;82.88;78.32;;;;;;;22.45;39.76;101421.06;5093342;28;20047;-72
2023/07/13 05:22:34;;;;;;;76.10;72.47;;;;;;;22.44;39.53;101422.19;5092337;28;20070;-71
2023/07/13 05:25:06;;;;;;;78.90;74.60;;;;;;;22.43;39.59;101431.56;5091721;28;20452;-71
2023/07/13 05:27:33;;;;;;;77.95;73.88;;;;;;;22.42;39.64;101429.91;5091872;28;20040;-71
2023/07/13 05:29:58;;;;;;;80.00;76.10;;;;;;;22.41;39.74;101430.25;5092883;28;20020;-71
2023/07/13 05:32:23;;;;;;;77.95;74.00;;;;;;;22.40;39.91;101434.94;5091696;28;20033;-72
2023/07/13 05:34:49;;;;;;;78.13;73.38;;;;;;;22.40;39.89;101434.09;5092943;28;20052;-72
2023/07/13 05:37:14;;;;;;;81.75;77.40;;;;;;;22.39;39.60;101433.28;5058235;28;20032;-71
2023/07/13 05:39:40;;;;;;;79.63;75.13;;;;;;;22.38;39.89;101439.94;5091946;28;20468;-71
2023/07/13 05:42:06;;;;;;;78.13;74.00;;;;;;;22.37;39.71;101441.03;5093435;28;20024;-72
2023/07/13 05:44:31;;;;;;;79.78;75.15;;;;;;;22.37;39.64;101441.03;5092963;28;20032;-71
2023/07/13 05:46:56;;;;;;;78.18;73.82;;;;;;;22.37;40.15;101440.22;5092857;28;20387;-71
2023/07/13 05:49:22;;;;;;;78.88;73.90;;;;;;;22.36;40.32;101439.41;5092405;28;20032;-72
2023/07/13 05:51:48;;;;;;;79.47;74.88;;;;;;;22.36;40.19;101441.34;5093661;28;20117;-74
2023/07/13 05:54:13;;;;;;;79.88;75.40;;;;;;;22.36;39.93;101436.66;5095657;28;20383;-72
2023/07/13 05:56:39;;;;;;;75.47;71.72;;;;;;;22.35;39.93;101447.97;5095520;28;20036;-72
2023/07/13 05:59:04;;;;;;;79.40;74.15;;;;;;;22.34;39.96;101451.84;5096407;28;20032;-71
2023/07/13 06:01:30;;;;;;;76.55;72.20;;;;;;;22.34;40.28;101447.16;5096448;28;20028;-71
2023/07/13 06:03:56;;;;;;;78.97;74.22;;;;;;;22.33;40.02;101462.06;5096678;28;20052;-72
2023/07/13 06:06:21;;;;;;;81.13;76.32;;;;;;;22.33;40.10;101462.06;5096706;28;20091;-72
2023/07/13 06:08:47;;;;;;;79.10;74.75;;;;;;;22.33;40.01;101464.00;5096235;28;20437;-72
2023/07/13 06:11:24;;;;;;;75.63;71.68;;;;;;;22.32;40.02;101462.34;5095223;28;20028;-71
2023/07/13 06:13:50;;;;;;;77.75;73.47;;;;;;;22.33;40.27;101475.00;5096254;28;20089;-74
2023/07/13 06:16:16;;;;;;;78.70;74.00;;;;;;;22.31;40.82;101472.53;5096331;28;20422;-71
2023/07/13 06:18:42;;;;;;;77.70;73.40;;;;;;;22.31;40.84;101485.50;5096114;28;20031;-73
2023/07/13 06:21:09;;;;;;;75.68;71.53;;;;;;;22.31;41.06;101474.47;5095731;28;20115;-73
2023/07/13 06:23:35;;;;;;;73.53;69.33;;;;;;;22.31;41.24;101478.03;5095865;28;20105;-73
2023/07/13 06:26:01;;;;;;;79.20;73.63;;;;;;;22.31;40.96;101477.25;5095938;28;20749;-72
2023/07/13 06:28:28;;;;;;;77.60;72.85;;;;;;;22.32;41.06;101484.34;5096099;28;20021;-74
2023/07/13 06:30:53;;;;;;;74.60;70.75;;;;;;;22.31;40.93;101482.75;5095833;28;20028;-73
2023/07/13 06:33:18;;;;;;;81.50;77.05;;;;;;;22.31;41.36;101486.31;5095169;28;20043;-71
2023/07/13 06:35:44;;;;;;;80.25;75.38;;;;;;;22.31;40.72;101482.75;5095932;28;20032;-71
2023/07/13 06:38:09;;;;;;;82.00;77.07;;;;;;;22.31;41.11;101491.81;5095043;28;20181;-74
2023/07/13 06:40:35;;;;;;;77.00;72.90;;;;;;;22.31;41.11;101483.56;5094577;28;20472;-73
2023/07/13 06:43:00;;;;;;;80.18;75.43;;;;;;;22.31;40.98;101483.56;5095135;28;20028;-72
2023/07/13 06:45:25;;;;;;;78.20;73.88;;;;;;;22.32;41.29;101487.13;5095779;28;20028;-72
2023/07/13 06:47:51;;;;;;;77.30;73.10;;;;;;;22.32;41.15;101498.13;5095553;28;20479;-73
2023/07/13 06:50:16;;;;;;;80.82;75.75;;;;;;;22.32;41.35;101498.94;5094134;28;20099;-73
2023/07/13 06:52:42;;;;;;;77.85;73.63;;;;;;;22.32;41.43;101493.44;5095673;28;20494;-72
2023/07/13 06:55:08;;;;;;;80.65;76.13;;;;;;;22.32;41.50;101492.63;5094465;28;20032;-73
2023/07/13 06:57:33;;;;;;;77.47;73.40;;;;;;;22.32;41.18;101496.19;5094638;28;20040;-72
2023/07/13 06:59:59;;;;;;;75.70;71.68;;;;;;;22.33;41.66;101497.81;5077070;28;20036;-71
2023/07/13 07:02:24;;;;;;;76.35;71.88;;;;;;;22.34;41.73;101493.13;5095319;28;20528;-71
2023/07/13 07:04:49;;;;;;;78.65;73.93;;;;;;;22.33;41.75;101506.09;5094189;28;20032;-72
2023/07/13 07:07:15;;;;;;;81.13;76.60;;;;;;;22.36;41.49;101499.16;5094293;28;20376;-73
2023/07/13 07:09:40;;;;;;;75.97;72.07;;;;;;;22.35;41.70;101498.34;5095863;28;20352;-72
2023/07/13 07:12:07;;;;;;;80.80;75.63;;;;;;;22.36;41.65;101504.66;5094245;28;20126;-72
2023/07/13 07:14:34;;;;;;;79.80;74.93;;;;;;;22.36;41.75;101499.16;5093673;28;20119;-75
2023/07/13 07:16:59;;;;;;;76.65;72.60;;;;;;;22.36;41.40;101499.97;5095433;28;20036;-71
2023/07/13 07:19:25;;;;;;;75.72;71.72;;;;;;;22.37;41.73;101498.84;5094886;28;20383;-71
2023/07/13 07:21:50;;;;;;;77.20;72.82;;;;;;;22.37;41.39;101512.59;5094901;28;20036;-71
2023/07/13 07:24:15;;;;;;;76.30;71.63;;;;;;;22.38;41.73;101505.19;5093417;28;20384;-72
2023/07/13 07:26:41;;;;;;;78.57;73.80;;;;;;;22.38;41.35;101506.00;5094445;28;20035;-74
2023/07/13 07:29:06;;;;;;;80.20;74.82;;;;;;;22.40;41.96;101508.41;5094199;28;20111;-72
2023/07/13 07:31:32;;;;;;;75.60;70.97;;;;;;;22.41;41.42;101504.56;5094077;28;20043;-72
2023/07/13 07:33:57;;;;;;;78.65;74.47;;;;;;;22.42;41.94;101497.94;5093638;28;20066;-75
2023/07/13 07:36:22;;;;;;;76.88;72.43;;;;;;;22.43;41.81;101499.56;5094912;28;20111;-73
2023/07/13 07:38:48;;;;;;;78.07;73.47;;;;;;;22.46;41.65;101507.22;5093446;28;20058;-72
2023/07/13 07:41:14;;;;;;;82.78;78.60;;;;;;;22.46;41.63;101509.97;5094806;28;20085;-71
2023/07/13 07:43:39;;;;;;;79.90;75.60;;;;;;;22.49;41.75;101525.06;5094457;28;20028;-72
2023/07/13 07:46:05;;;;;;;81.82;77.22;;;;;;;22.50;41.63;101513.72;5076609;28;20040;-72
2023/07/13 07:48:31;;;;;;;77.38;73.28;;;;;;;22.51;42.08;101517.31;5093950;28;20078;-72
2023/07/13 07:50:56;;;;;;;81.53;77.13;;;;;;;22.53;41.60;101523.31;5094297;28;20151;-73
2023/07/13 07:53:22;;;;;;;80.70;76.57;;;;;;;22.55;41.69;101521.09;5094422;28;20049;-72
2023/07/13 07:55:48;;;;;;;79.38;75.35;;;;;;;22.56;42.01;101514.47;5093879;28;20131;-71
2023/07/13 07:58:14;;;;;;;82.75;77.72;;;;;;;22.59;42.05;101513.84;5092904;28;20036;-72
2023/07/13 08:00:40;;;;;;;76.53;72.63;;;;;;;22.59;42.08;101514.66;5094201;28;20440;-73
2023/07/13 08:03:05;;;;;;;82.35;77.93;;;;;;;22.62;41.99;101518.75;5093661;28;20092;-72
2023/07/13 08:05:31;;;;;;;79.72;75.00;;;;;;;22.63;42.07;101526.72;5094055;28;20115;-73
2023/07/13 08:07:56;;;;;;;77.03;73.05;;;;;;;22.64;41.77;101505.50;5094025;28;20028;-73
2023/07/13 08:10:21;;;;;;;83.25;78.85;;;;;;;22.66;41.99;101511.53;5075698;28;20353;-76
2023/07/13 08:12:47;;;;;;;77.82;73.70;;;;;;;22.67;41.68;101511.19;5093207;28;20042;-74
2023/07/13 08:15:15;;;;;;;80.55;76.60;;;;;;;22.69;41.71;101519.16;5091997;28;20160;-73
2023/07/13 08:17:41;;;;;;;81.53;77.32;;;;;;;22.73;41.47;101528.47;5093820;28;20082;-72
2023/07/13 08:20:08;;;;;;;83.32;78.47;;;;;;;22.74;41.89;101521.81;5093738;28;20036;-72
2023/07/13 08:22:34;;;;;;;83.07;78.87;;;;;;;22.76;41.98;101524.28;5094118;28;20039;-73
2023/07/13 08:24:59;;;;;;;81.22;77.18;;;;;;;22.79;41.84;101521.72;5092498;28;20024;-73
2023/07/13 08:27:27;;;;;;;83.43;78.82;;;;;;;22.82;42.24;101521.09;5093696;28;20115;-73
2023/07/13 08:29:53;;;;;;;80.38;76.10;;;;;;;22.86;42.00;101518.56;5093241;28;20363;-73
2023/07/13 08:32:20;;;;;;;83.68;79.38;;;;;;;22.89;41.86;101521.50;5091899;28;20032;-72
2023/07/13 08:34:46;;;;;;;83.32;78.22;;;;;;;22.93;41.81;101520.88;5093561;28;20067;-72
2023/07/13 08:37:12;;;;;;;85.15;79.55;;;;;;;22.96;42.21;101518.34;5093141;28;20082;-71
2023/07/13 08:39:37;;;;;;;83.72;78.63;;;;;;;22.99;42.10;101525.22;5093435;28;20035;-72
2023/07/13 08:42:13;;;;;;;83.43;78.43;;;;;;;23.02;42.25;101522.63;5093484;28;20039;-73
2023/07/13 08:45:11;;;;;;;80.85;76.55;;;;;;;23.07;42.07;101524.47;5093764;28;20104;-72
2023/07/13 08:47:42;;;;;;;80.35;76.55;;;;;;;23.08;42.00;101520.59;5093768;28;20028;-71
2023/07/13 08:50:13;;;;;;;82.43;78.53;;;;;;;23.12;41.94;101516.09;5093392;28;20034;-77
2023/07/13 08:52:41;;;;;;;85.55;80.82;;;;;;;23.16;41.84;101513.53;5093456;28;20036;-71
2023/07/13 08:55:18;;;;;;;81.25;77.45;;;;;;;23.19;42.14;101510.19;5093272;28;20492;-71
2023/07/13 08:57:52;;;;;;;81.35;77.35;;;;;;;23.22;42.23;101512.31;5093321;28;20119;-70
2023/07/13 09:00:17;;;;;;;85.38;80.50;;;;;;;23.25;41.87;101518.00;5093278;28;20044;-71
2023/07/13 09:02:48;;;;;;;84.15;79.60;;;;;;;23.28;42.25;101511.91;5093201;28;20336;-72
2023/07/13 09:05:18;;;;;;;83.53;79.53;;;;;;;23.33;42.16;101516.44;5092901;28;20379;-72
2023/07/13 09:08:08;;;;;;;87.47;82.95;;;;;;;23.37;42.27;101513.91;5093291;28;20047;-72
2023/07/13 09:11:15;;;;;;;83.55;79.25;;;;;;;23.41;42.02;101518.50;5093755;28;20027;-72
2023/07/13 09:13:48;;;;;;;82.45;78.28;;;;;;;23.46;41.83;101517.53;5072061;28;20050;-71
2023/07/13 09:16:13;;;;;;;86.00;81.65;;;;;;;23.49;42.22;101516.94;5093087;28;20059;-72
2023/07/13 09:18:43;;;;;;;86.28;81.57;;;;;;;23.51;42.36;101514.66;5091940;28;20028;-72
2023/07/13 09:21:14;;;;;;;88.50;84.07;;;;;;;23.54;42.44;101506.59;5092785;28;20484;-71
2023/07/13 09:23:40;;;;;;;88.32;83.88;;;;;;;23.58;42.55;101505.97;5093158;28;20153;-71
2023/07/13 09:26:21;;;;;;;84.57;80.28;;;;;;;23.61;42.47;101502.56;5092658;28;20069;-71
2023/07/13 09:28:51;;;;;;;86.30;81.80;;;;;;;23.66;42.06;101508.81;5093002;28;20032;-71
2023/07/13 09:31:34;;;;;;;87.50;82.75;;;;;;;23.70;42.55;101504.28;5092902;28;20032;-72
2023/07/13 09:33:59;;;;;;;86.30;81.55;;;;;;;23.74;42.47;101513.59;5093744;28;20048;-71
2023/07/13 09:36:29;;;;;;;85.88;81.50;;;;;;;23.80;42.66;101519.00;5074587;28;20137;-72
2023/07/13 09:39:22;;;;;;;87.47;83.22;;;;;;;23.84;42.45;101519.97;5091640;28;20028;-72
2023/07/13 09:42:15;;;;;;;82.22;78.05;;;;;;;23.85;42.06;101527.16;5093079;28;20066;-71
2023/07/13 09:44:47;;;;;;;86.30;81.50;;;;;;;23.89;42.55;101514.34;5092827;28;20035;-70
2023/07/13 09:47:17;;;;;;;87.57;82.75;;;;;;;23.93;42.22;101515.34;5092445;28;20028;-73
2023/07/13 09:49:44;;;;;;;90.20;85.53;;;;;;;23.97;42.38;101510.84;5092906;28;20032;-71
2023/07/13 09:52:15;;;;;;;86.82;82.50;;;;;;;24.02;42.59;101521.75;5092831;28;20063;-74
2023/07/13 09:54:48;;;;;;;89.60;85.13;;;;;;;24.07;42.06;101521.63;5091563;28;20337;-71
2023/07/13 09:57:16;;;;;;;89.05;84.45;;;;;;;24.13;42.05;101523.09;5092902;28;20028;-70
2023/07/13 09:59:51;;;;;;;88.00;83.50;;;;;;;24.18;42.15;101536.78;5092608;28;20108;-72
2023/07/13 10:02:33;;;;;;;88.68;84.18;;;;;;;24.24;42.18;101534.72;5092660;28;20028;-71
2023/07/13 10:05:15;;;;;;;89.22;84.65;;;;;;;24.29;42.07;101537.34;5092877;28;20024;-72
2023/07/13 10:07:44;;;;;;;91.65;84.55;;;;;;;24.33;42.24;101538.31;5093367;28;20027;-72
2023/07/13 10:10:22;;;;;;;;;;;;;;;24.38;42.16;101540.94;5091738;28;20036;-75
2023/07/13 10:12:49;;;;;;;88.70;83.90;;;;;;;24.43;42.12;101547.47;5092835;28;19916;-72
2023/07/13 10:15:21;;;;;;;92.63;87.57;;;;;;;24.48;42.26;101548.19;5092568;28;20048;-73
2023/07/13 10:17:47;;;;;;;94.18;89.57;;;;;;;24.53;42.23;101555.50;5091173;28;20181;-71
2023/07/13 10:20:14;;;;;;;89.88;85.68;;;;;;;24.56;41.96;101552.09;5092912;28;20101;-72
2023/07/13 10:23:01;;;;;;;89.38;85.00;;;;;;;24.61;42.61;101555.53;5092299;28;20032;-73
2023/07/13 10:25:33;;;;;;;94.43;89.60;;;;;;;24.66;42.59;101548.25;5091958;28;20028;-73
2023/07/13 10:28:21;;;;;;;90.78;85.97;;;;;;;24.69;42.29;101556.72;5092697;28;20028;-72
2023/07/13 10:30:48;;;;;;;;;;;;;;;24.72;42.26;101545.03;5093002;28;20032;-72
2023/07/13 10:33:14;;;;;;;90.68;86.18;;;;;;;24.75;42.16;101541.63;5091385;28;20262;-77
2023/07/13 10:35:43;;;;;;;92.00;87.32;;;;;;;24.77;42.54;101539.38;5092458;28;20031;-73
2023/07/13 10:38:18;;;;;;;93.85;89.20;;;;;;;24.82;42.40;101542.00;5094237;28;20467;-73
2023/07/13 10:40:54;;;;;;;93.93;89.25;;;;;;;24.88;42.55;101542.66;5095744;28;20059;-73
2023/07/13 10:43:28;;;;;;;93.45;88.90;;;;;;;24.93;42.71;101550.78;5096471;28;20047;-73
2023/07/13 10:45:54;;;;;;;98.30;93.78;;;;;;;24.96;42.33;101549.34;5095931;28;20020;-72
2023/07/13 10:48:22;;;;;;;100.80;96.10;;;;;;;25.00;41.97;101555.88;5095739;28;20039;-73
2023/07/13 10:50:52;;;;;;;93.40;89.03;;;;;;;25.03;42.53;101539.44;5095727;28;20047;-73
2023/07/13 10:53:29;;;;;;;95.88;91.55;;;;;;;25.09;41.88;101542.06;5095537;28;20262;-74
2023/07/13 10:56:22;;;;;;;97.22;92.63;;;;;;;25.13;42.24;101545.81;5095503;28;20020;-73
2023/07/13 10:59:11;;;;;;;94.20;89.65;;;;;;;25.19;42.13;101544.53;5094817;28;20034;-72
2023/07/13 11:01:50;;;;;;;98.07;93.18;;;;;;;25.23;41.53;101559.38;5095614;28;20028;-74
2023/07/13 11:04:16;;;;;;;95.97;91.65;;;;;;;25.28;41.85;101544.56;5094576;28;20043;-73
2023/07/13 11:06:45;;;;;;;94.70;90.30;;;;;;;25.32;41.49;101556.59;5094279;28;20032;-73
2023/07/13 11:09:51;;;;;;;95.90;90.82;;;;;;;25.37;41.19;101554.47;5095463;28;20024;-73
2023/07/13 11:12:22;;;;;;;94.45;89.85;;;;;;;25.42;41.46;101559.06;5071428;28;20047;-74